KMHR/MHR METAR and TAF weather

Enter ICAO airport designator
Station Type Date Time Source
KMHR METAR 2019/02/16 16:45 UTC NOAA

KMHR 161645Z 18004KT 10SM SCT013 BKN075 08/06 A3013


Station Type Date Time Source
KMHR Decoded METAR 2019/02/16 16:45 UTC NOAA

Sacramento, Sacramento Mather Airport, CA, United States (KMHR) 38-33N 121-18W
Feb 16, 2019 - 11:45 AM EST / 2019.02.16 1645 UTC
Wind: from the S (180 degrees) at 5 MPH (4 KT):0
Visibility: 10 mile(s):0
Sky conditions: mostly cloudy
Temperature: 46 F (8 C)
Dew Point: 42 F (6 C)
Relative Humidity: 87%
Pressure (altimeter): 30.13 in. Hg (1020 hPa)
ob: KMHR 161645Z 18004KT 10SM SCT013 BKN075 08/06 A3013
cycle: 17

Station Type Date Time Source
KMHR TAF 2019/02/16 12:33 UTC NOAA

TAF KMHR 161130Z 1612/1712 15012KT P6SM VCSH BKN030
FM161700 19012KT P6SM VCSH BKN050
FM170000 28008KT P6SM BKN050


Example: see airport list